Time;durP1;ratioP1;P1;durP2;ratioP2;P2;SDS_P1;SDS_P2;PMS_P1;PMS_P2;Temp;Humidity;BMP_temperature;BMP_pressure;BME280_temperature;BME280_humidity;BME280_pressure;Samples;Min_cycle;Max_cycle;Signal;HPM_P1;HPM_P2
2022/08/16 00:00:32;;;;;;;4.07;2.60;;;23.10;61.30;;;23.53;43.92;97966.22;5037785;27;122966;-69
2022/08/16 00:03:01;;;;;;;4.47;2.50;;;23.10;61.30;;;23.52;44.00;97973.09;5040040;27;123141;-69
2022/08/16 00:05:29;;;;;;;5.03;2.20;;;23.10;61.20;;;23.56;44.26;97978.69;5042265;27;119434;-70
2022/08/16 00:07:57;;;;;;;5.10;2.40;;;23.10;61.30;;;23.56;44.15;97964.59;5044182;27;118596;-69
2022/08/16 00:10:28;;;;;;;5.27;2.70;;;23.10;61.30;;;23.55;43.92;97975.06;5040482;27;124082;-69
2022/08/16 00:12:55;;;;;;;4.33;2.73;;;23.10;61.30;;;23.56;44.15;97965.41;5047477;27;123785;-70
2022/08/16 00:15:46;;;;;;;5.40;2.23;;;23.10;61.40;;;23.56;43.99;97976.69;5038628;27;119645;-70
2022/08/16 00:18:16;;;;;;;3.40;2.30;;;23.10;61.40;;;23.54;44.08;97981.16;5049705;27;118898;-69
2022/08/16 00:20:46;;;;;;;4.70;2.57;;;23.10;61.40;;;23.52;44.03;97977.94;5039522;27;124185;-69
2022/08/16 00:23:13;;;;;;;4.53;2.57;;;23.10;61.40;;;23.53;44.25;97982.34;5043917;27;123868;-70
2022/08/16 00:25:40;;;;;;;4.40;3.00;;;23.00;61.30;;;23.52;44.20;97984.38;5040720;27;119418;-69
2022/08/16 00:28:07;;;;;;;4.07;2.90;;;23.00;61.50;;;23.52;44.18;97984.38;5047907;27;120030;-68
2022/08/16 00:30:34;;;;;;;2.90;2.53;;;23.00;61.50;;;23.54;44.13;97979.13;5047141;27;124003;-69
2022/08/16 00:33:02;;;;;;;3.00;2.70;;;23.10;61.60;;;23.56;44.22;97987.13;5044193;27;123444;-69
2022/08/16 00:35:34;;;;;;;3.13;2.83;;;23.10;61.60;;;23.54;44.14;97983.97;5028311;27;118859;-68
2022/08/16 00:38:02;;;;;;;4.03;2.60;;;23.10;61.60;;;23.53;44.27;97979.53;5038927;27;118548;-68
2022/08/16 00:40:53;;;;;;;2.60;2.40;;;23.00;61.60;;;23.50;44.31;97986.00;5030478;27;123990;-68
2022/08/16 00:43:27;;;;;;;5.27;2.60;;;23.00;61.60;;;23.51;44.33;97990.44;5028889;27;123086;-69
2022/08/16 00:46:32;;;;;;;3.13;2.57;;;23.00;61.70;;;23.50;44.33;97983.97;5012344;27;118496;-69
2022/08/16 00:48:59;;;;;;;4.23;2.90;;;23.10;61.80;;;23.53;44.25;97982.34;5036195;27;118694;-69
2022/08/16 00:51:27;;;;;;;3.40;2.80;;;23.00;61.80;;;23.55;44.36;97985.56;5031889;27;123352;-69
2022/08/16 00:53:54;;;;;;;4.13;2.57;;;23.00;61.90;;;23.55;44.50;97985.56;5025413;27;123753;-68
2022/08/16 00:56:30;;;;;;;3.80;2.27;;;23.10;62.10;;;23.57;44.44;97983.91;5027701;27;119057;-68
2022/08/16 00:58:57;;;;;;;5.60;2.90;;;23.10;62.20;;;23.61;44.44;97981.03;5039476;27;118938;-68
2022/08/16 01:01:23;;;;;;;3.07;2.77;;;23.10;62.20;;;23.64;44.57;97993.50;5038381;27;124474;-68
2022/08/16 01:03:53;;;;;;;5.03;2.93;;;23.10;62.30;;;23.63;44.58;97986.28;5046500;27;123626;-69
2022/08/16 01:06:20;;;;;;;3.50;3.10;;;23.10;62.50;;;23.60;44.92;97983.06;5037579;27;119152;-69
2022/08/16 01:08:51;;;;;;;5.20;2.50;;;23.10;62.60;;;23.57;44.64;97992.38;5036196;27;119364;-69
2022/08/16 01:11:19;;;;;;;3.07;2.70;;;23.10;62.70;;;23.55;44.93;97983.53;5046984;27;123306;-68
2022/08/16 01:13:48;;;;;;;4.83;2.90;;;23.10;62.80;;;23.53;44.94;97994.41;5041609;27;123676;-69
2022/08/16 01:16:25;;;;;;;3.93;3.13;;;23.00;62.90;;;23.50;45.20;97988.81;5037360;27;120067;-68
2022/08/16 01:19:22;;;;;;;4.00;2.77;;;23.00;63.00;;;23.48;45.04;97982.81;5020292;27;118983;-67
2022/08/16 01:22:00;;;;;;;5.47;2.90;;;23.00;63.10;;;23.50;45.41;97988.81;5029410;27;125757;-70
2022/08/16 01:24:35;;;;;;;3.90;2.90;;;23.00;63.40;;;23.47;45.54;97984.03;5027316;27;125183;-68
2022/08/16 01:27:11;;;;;;;4.63;3.67;;;23.00;63.80;;;23.46;45.77;97986.06;5036405;27;119151;-68
2022/08/16 01:30:07;;;;;;;4.17;3.20;;;23.00;64.10;;;23.45;45.86;97986.47;5029118;27;118884;-70
2022/08/16 01:32:41;;;;;;;11.90;2.33;;;23.00;64.40;;;23.44;46.15;97990.50;5040903;27;123370;-69
2022/08/16 01:35:15;;;;;;;2.90;2.70;;;23.00;64.70;;;23.43;46.40;97986.06;5037946;27;123020;-69
2022/08/16 01:37:55;;;;;;;4.00;2.97;;;23.00;65.10;;;23.40;46.49;97984.91;5026335;27;119236;-69
2022/08/16 01:40:28;;;;;;;3.40;2.90;;;23.00;65.30;;;23.41;46.52;97991.34;5030663;27;119351;-68
2022/08/16 01:42:55;;;;;;;3.33;2.50;;;22.90;65.40;;;23.38;46.83;97993.78;5035101;27;124310;-71
2022/08/16 01:45:23;;;;;;;3.40;2.83;;;22.90;65.50;;;23.36;46.73;97999.03;5038374;27;123924;-74
2022/08/16 01:47:51;;;;;;;4.67;2.63;;;22.90;65.70;;;23.34;46.83;97993.00;5038960;27;119401;-76
2022/08/16 01:50:20;;;;;;;4.20;2.97;;;22.90;65.90;;;23.32;47.02;97991.81;5042572;27;119472;-70
2022/08/16 01:52:47;;;;;;;3.40;2.40;;;22.90;66.10;;;23.31;47.16;97998.69;5040542;27;124742;-70
2022/08/16 01:55:17;;;;;;;3.27;2.83;;;22.90;66.30;;;23.30;47.28;97995.06;5000852;28;122304;-71
2022/08/16 01:57:44;;;;;;;3.33;2.67;;;22.90;66.60;;;23.28;47.40;97989.03;5033643;27;119996;-70
2022/08/16 02:00:11;;;;;;;4.17;2.70;;;22.90;66.70;;;23.25;47.24;97983.44;5034816;27;118108;-70
2022/08/16 02:02:38;;;;;;;2.50;2.30;;;22.80;66.80;;;23.24;47.33;97993.94;5045888;27;123716;-71
2022/08/16 02:05:05;;;;;;;3.43;3.13;;;22.80;66.90;;;23.21;47.37;97989.09;5030601;27;123902;-70
2022/08/16 02:07:32;;;;;;;2.90;2.57;;;22.80;67.10;;;23.20;47.28;97990.34;5025949;27;120155;-71
2022/08/16 02:09:59;;;;;;;3.57;2.80;;;22.80;67.20;;;23.21;47.63;97986.28;5038460;27;119873;-71
2022/08/16 02:12:30;;;;;;;2.67;2.47;;;22.80;67.50;;;23.21;47.54;97983.47;5025564;27;124125;-71
2022/08/16 02:14:57;;;;;;;5.10;2.70;;;22.80;67.60;;;23.20;47.84;97984.69;5024466;27;123673;-71
2022/08/16 02:17:23;;;;;;;3.90;2.73;;;22.80;67.70;;;23.18;47.52;98000.41;5034562;27;119434;-71
2022/08/16 02:19:52;;;;;;;4.10;2.93;;;22.70;67.70;;;23.13;47.89;97988.41;5026147;27;119143;-70
2022/08/16 02:22:23;;;;;;;4.07;2.77;;;22.70;68.00;;;23.11;47.78;97987.22;5030088;27;124116;-70
2022/08/16 02:24:50;;;;;;;3.17;2.70;;;22.70;68.20;;;23.10;47.98;97994.84;5019927;27;122992;-71
2022/08/16 02:27:17;;;;;;;4.33;2.90;;;22.70;68.40;;;23.09;48.15;97987.63;5032035;27;119358;-71
2022/08/16 02:29:44;;;;;;;3.70;2.90;;;22.70;68.50;;;23.09;47.90;97990.44;5024666;27;118823;-71
2022/08/16 02:32:14;;;;;;;3.40;2.80;;;22.60;68.50;;;23.07;48.16;97986.44;5023571;27;123920;-71
2022/08/16 02:34:41;;;;;;;4.10;2.73;;;22.70;68.70;;;23.09;48.12;97978.38;5026008;27;123034;-71
2022/08/16 02:37:09;;;;;;;3.70;2.70;;;22.60;68.70;;;23.07;48.13;97972.34;5026438;27;120236;-71
2022/08/16 02:39:35;;;;;;;4.33;3.23;;;22.70;68.90;;;23.04;48.46;97976.00;5033091;27;118574;-70
2022/08/16 02:42:02;;;;;;;4.70;2.80;;;22.60;69.10;;;23.02;48.33;97973.56;5045681;27;123331;-71
2022/08/16 02:44:30;;;;;;;4.17;2.70;;;22.50;69.20;;;23.01;48.65;97977.63;5026582;27;122802;-71
2022/08/16 02:46:56;;;;;;;3.20;2.60;;;22.50;69.30;;;23.01;48.65;97977.63;5040937;27;119051;-72
2022/08/16 02:49:23;;;;;;;4.33;3.07;;;22.50;69.60;;;23.01;48.50;97976.84;5034177;27;119087;-71
2022/08/16 02:51:49;;;;;;;3.10;2.63;;;22.50;69.60;;;23.01;48.35;97965.56;5029145;27;124069;-71
2022/08/16 02:54:16;;;;;;;3.00;2.70;;;22.50;69.60;;;23.02;48.41;97976.41;5026644;27;122972;-71
2022/08/16 02:56:45;;;;;;;3.97;2.87;;;22.50;69.70;;;23.05;48.58;97969.13;5034246;27;120554;-71
2022/08/16 02:59:12;;;;;;;3.67;3.07;;;22.60;69.90;;;23.06;48.52;97973.56;5023806;27;119887;-71
2022/08/16 03:01:39;;;;;;;2.80;2.60;;;22.60;70.00;;;23.08;48.31;97965.50;5029886;27;123998;-71
2022/08/16 03:04:06;;;;;;;3.40;2.97;;;22.50;70.00;;;23.07;48.60;97972.34;5025149;27;123897;-71
2022/08/16 03:06:32;;;;;;;4.57;3.00;;;22.60;70.10;;;23.09;48.35;97976.34;5025362;27;119266;-71
2022/08/16 03:08:59;;;;;;;3.00;2.70;;;22.60;70.10;;;23.11;48.64;97973.13;5038927;27;119029;-71
2022/08/16 03:11:25;;;;;;;2.57;2.33;;;22.60;70.10;;;23.13;48.53;97970.66;5032894;27;124376;-71
2022/08/16 03:13:53;;;;;;;3.40;3.00;;;22.60;70.10;;;23.14;48.55;97961.00;5025672;27;123718;-71
2022/08/16 03:16:21;;;;;;;7.70;3.40;;;22.70;70.30;;;23.11;48.26;97959.81;5027325;27;118856;-71
2022/08/16 03:18:48;;;;;;;3.20;2.43;;;22.60;70.30;;;23.12;48.56;97963.44;5024061;27;118936;-71
2022/08/16 03:21:15;;;;;;;4.80;3.50;;;22.60;70.30;;;23.12;48.30;97960.63;5041088;27;122930;-71
2022/08/16 03:23:42;;;;;;;3.33;2.60;;;22.60;70.30;;;23.14;48.55;97961.00;5025087;27;123733;-71
2022/08/16 03:26:09;;;;;;;7.03;3.57;;;22.60;70.30;;;23.14;48.48;97955.38;5024927;27;118264;-70
2022/08/16 03:28:36;;;;;;;4.00;2.83;;;22.70;70.50;;;23.12;48.69;97950.16;5024209;27;119397;-70
2022/08/16 03:31:03;;;;;;;3.93;3.00;;;22.60;70.50;;;23.11;48.65;97945.75;5028371;27;124091;-70
2022/08/16 03:33:29;;;;;;;4.30;3.60;;;22.60;70.70;;;23.09;48.62;97944.56;5021251;27;124323;-70
2022/08/16 03:35:58;;;;;;;3.23;2.93;;;22.60;70.60;;;23.06;48.40;97945.38;5026629;27;119815;-71
2022/08/16 03:38:28;;;;;;;5.30;2.97;;;22.60;70.60;;;23.03;48.78;97954.69;5025139;27;119053;-71
2022/08/16 03:40:56;;;;;;;4.77;3.40;;;22.60;70.70;;;23.01;48.98;97951.47;5033609;27;123842;-70
2022/08/16 03:43:23;;;;;;;3.20;2.90;;;22.60;70.70;;;22.97;48.82;97961.97;5023180;27;124038;-70
2022/08/16 03:45:51;;;;;;;4.37;3.53;;;22.50;70.60;;;22.95;48.91;97959.53;5030521;27;121358;-71
2022/08/16 03:48:19;;;;;;;3.13;2.83;;;22.50;70.90;;;22.91;48.60;97953.94;5032180;27;120402;-71
2022/08/16 03:50:46;;;;;;;4.10;3.30;;;22.50;71.00;;;22.88;48.98;97954.75;5028667;27;124225;-71
2022/08/16 03:53:12;;;;;;;4.17;3.00;;;22.50;71.20;;;22.85;49.27;97955.59;5030731;27;123799;-71
2022/08/16 03:55:39;;;;;;;5.60;3.40;;;22.40;71.20;;;22.83;49.36;97955.19;5026598;27;119455;-71
2022/08/16 03:58:06;;;;;;;3.10;2.80;;;22.40;71.40;;;22.78;49.29;97950.00;5033329;27;119362;-71
2022/08/16 04:00:33;;;;;;;5.33;3.77;;;22.40;71.60;;;22.77;49.36;97954.06;5027810;27;123823;-71
2022/08/16 04:03:06;;;;;;;5.10;3.50;;;22.40;71.70;;;22.75;49.72;97955.69;5024807;27;124383;-71
2022/08/16 04:05:35;;;;;;;4.80;3.37;;;22.30;72.20;;;22.68;49.56;97957.34;5046349;27;118815;-71
2022/08/16 04:08:03;;;;;;;3.70;2.87;;;22.30;72.20;;;22.64;49.64;97958.59;5028183;27;119040;-71
2022/08/16 04:10:30;;;;;;;3.23;2.93;;;22.20;72.30;;;22.62;50.04;97949.75;5042362;27;123124;-71
2022/08/16 04:12:58;;;;;;;4.43;3.20;;;22.20;72.40;;;22.63;49.79;97954.19;5021474;27;122608;-71
2022/08/16 04:15:28;;;;;;;4.13;3.60;;;22.20;72.50;;;22.63;50.01;97954.97;5029025;27;119292;-71
2022/08/16 04:17:56;;;;;;;3.60;2.87;;;22.20;72.70;;;22.59;49.90;97951.38;5035948;27;118798;-71
2022/08/16 04:20:24;;;;;;;5.90;3.70;;;22.10;72.70;;;22.58;49.90;97954.63;5045419;27;124539;-71
2022/08/16 04:22:51;;;;;;;4.40;2.90;;;22.20;72.90;;;22.56;49.98;97959.84;5042487;27;123702;-71
2022/08/16 04:25:18;;;;;;;5.23;3.13;;;22.10;73.00;;;22.55;50.17;97961.88;5038955;27;119285;-71
2022/08/16 04:27:45;;;;;;;4.30;2.53;;;22.10;73.10;;;22.57;50.39;97969.88;5037469;27;119206;-71
2022/08/16 04:30:15;;;;;;;4.20;3.13;;;22.20;73.30;;;22.56;50.13;97963.47;5044754;27;124152;-70
2022/08/16 04:32:43;;;;;;;4.97;3.40;;;22.10;73.30;;;22.58;50.12;97968.69;5037882;27;123901;-70
2022/08/16 04:35:15;;;;;;;3.50;3.07;;;22.20;73.40;;;22.59;50.00;97975.91;5029214;27;120377;-71
2022/08/16 04:37:47;;;;;;;4.10;3.10;;;22.20;73.50;;;22.60;50.36;97974.72;5030041;27;119945;-71
2022/08/16 04:40:15;;;;;;;3.70;2.90;;;22.10;73.60;;;22.57;50.04;97978.34;5027373;27;124010;-71
2022/08/16 04:42:42;;;;;;;4.53;2.93;;;22.10;73.70;;;22.57;50.39;97975.53;5027100;27;124453;-71
2022/08/16 04:45:12;;;;;;;3.70;3.20;;;22.10;73.80;;;22.59;49.96;97978.72;5037530;27;119954;-71
2022/08/16 04:47:41;;;;;;;4.60;3.80;;;22.10;73.90;;;22.61;50.09;97976.31;5028919;27;118413;-71
2022/08/16 04:50:26;;;;;;;5.60;3.90;;;22.10;73.90;;;22.64;50.00;97983.94;5044170;27;124441;-71
2022/08/16 04:52:53;;;;;;;3.60;3.20;;;22.10;73.90;;;22.66;50.20;97985.13;5027503;27;124246;-71
2022/08/16 04:55:24;;;;;;;3.50;3.07;;;22.20;74.00;;;22.66;49.91;97993.56;5025712;27;119121;-71
2022/08/16 04:57:55;;;;;;;7.00;3.33;;;22.20;74.10;;;22.66;49.81;97995.59;5027253;27;119158;-71
2022/08/16 05:00:32;;;;;;;5.17;3.20;;;22.20;74.20;;;22.66;50.21;97992.78;5030928;27;122884;-71
2022/08/16 05:03:08;;;;;;;4.00;3.00;;;22.10;74.10;;;22.68;49.90;97996.78;5035509;27;123890;-71
2022/08/16 05:05:39;;;;;;;6.03;2.40;;;22.20;74.30;;;22.70;49.93;97999.16;5036043;27;119376;-71
2022/08/16 05:08:06;;;;;;;6.60;3.13;;;22.20;74.40;;;22.70;50.18;97994.34;5040615;27;118378;-71
2022/08/16 05:10:34;;;;;;;3.30;3.00;;;22.20;74.30;;;22.71;50.23;98000.78;5033258;27;123364;-71
2022/08/16 05:13:02;;;;;;;3.10;2.67;;;22.20;74.30;;;22.70;50.07;98002.81;5030192;27;123825;-71
2022/08/16 05:15:29;;;;;;;4.07;3.30;;;22.30;74.40;;;22.71;50.17;97997.97;5040765;27;119221;-71
2022/08/16 05:17:58;;;;;;;3.43;3.10;;;22.20;74.30;;;22.74;50.15;97999.16;5027585;27;119467;-71
2022/08/16 05:20:26;;;;;;;3.93;3.50;;;22.20;74.40;;;22.75;49.91;98006.38;5026295;27;124156;-72
2022/08/16 05:22:52;;;;;;;5.07;3.10;;;22.20;74.40;;;22.76;50.14;98000.34;5030868;27;123720;-72
2022/08/16 05:25:19;;;;;;;3.03;2.77;;;22.20;74.40;;;22.76;50.18;97996.72;5028808;27;120078;-71
2022/08/16 05:27:46;;;;;;;3.50;2.70;;;22.30;74.50;;;22.78;50.13;98002.72;5045511;27;120039;-71
2022/08/16 05:30:14;;;;;;;4.10;3.40;;;22.30;74.60;;;22.80;49.93;98003.91;5037269;27;123810;-71
2022/08/16 05:32:41;;;;;;;5.30;3.00;;;22.30;74.50;;;22.80;50.10;98008.75;5035227;27;123742;-71
2022/08/16 05:35:11;;;;;;;3.53;3.20;;;22.30;74.50;;;22.78;50.05;98011.19;5025653;27;118522;-71
2022/08/16 05:37:39;;;;;;;4.00;3.07;;;22.30;74.60;;;22.75;49.89;98007.19;5029493;27;118966;-71
2022/08/16 05:40:07;;;;;;;6.00;3.00;;;22.30;74.60;;;22.73;49.99;98012.44;5025301;27;123953;-71
2022/08/16 05:42:34;;;;;;;4.03;3.00;;;22.30;74.70;;;22.73;50.24;98009.63;5033058;27;126445;-71
2022/08/16 05:45:01;;;;;;;6.13;3.37;;;22.30;74.70;;;22.74;50.00;98005.59;5035077;27;121008;-71
2022/08/16 05:47:27;;;;;;;8.83;5.90;;;22.30;74.80;;;22.78;50.29;97999.91;5032130;27;118876;-71
2022/08/16 05:49:53;;;;;;;6.90;4.63;;;22.30;74.80;;;22.82;49.99;98001.50;5036465;27;123183;-71
2022/08/16 05:52:20;;;;;;;7.87;4.20;;;22.30;74.90;;;22.84;49.90;97999.06;5042729;27;123090;-71
2022/08/16 05:54:47;;;;;;;5.20;3.20;;;22.30;74.80;;;22.85;49.98;98003.47;5042801;27;119438;-71
2022/08/16 05:57:16;;;;;;;4.13;3.10;;;22.40;74.90;;;22.85;49.86;98011.94;5033531;27;119159;-71
2022/08/16 05:59:44;;;;;;;3.43;2.70;;;22.40;74.90;;;22.87;49.97;98015.13;5045578;27;124081;-71
2022/08/16 06:02:10;;;;;;;4.27;3.70;;;22.40;74.90;;;22.87;50.18;98012.31;5041872;27;123892;-71
2022/08/16 06:04:37;;;;;;;14.83;3.50;;;22.40;75.00;;;22.90;50.17;98011.50;5035051;27;119297;-71
2022/08/16 06:07:05;;;;;;;5.13;3.30;;;22.40;75.00;;;22.93;50.31;98012.69;5045933;27;118903;-71
2022/08/16 06:09:33;;;;;;;4.40;3.10;;;22.40;75.10;;;22.97;50.04;98019.13;5034314;27;124095;-71
2022/08/16 06:12:00;;;;;;;5.07;3.53;;;22.40;75.10;;;23.00;50.08;98018.28;5037672;27;123741;-71
2022/08/16 06:14:28;;;;;;;4.40;3.30;;;22.50;75.10;;;23.03;49.99;98016.66;5038098;27;120467;-71
2022/08/16 06:16:56;;;;;;;5.33;3.50;;;22.60;75.20;;;23.06;49.89;98021.47;5031444;27;120371;-71
2022/08/16 06:19:23;;;;;;;3.70;3.07;;;22.50;75.50;;;23.09;49.89;98021.44;5025375;27;123892;-71
2022/08/16 06:21:49;;;;;;;6.33;3.20;;;22.50;75.20;;;23.12;49.60;98020.59;5037382;27;124447;-71
2022/08/16 06:24:16;;;;;;;4.40;2.70;;;22.60;75.10;;;23.14;49.81;98023.81;5030992;27;119106;-71
2022/08/16 06:26:42;;;;;;;3.30;2.87;;;22.60;75.00;;;23.17;49.52;98016.53;5035779;27;118276;-71
2022/08/16 06:29:09;;;;;;;4.33;3.40;;;22.60;75.00;;;23.23;49.49;98017.69;5025674;27;124526;-72
2022/08/16 06:31:35;;;;;;;5.23;3.03;;;22.70;75.00;;;23.28;49.58;98017.22;5028557;27;123852;-71
2022/08/16 06:34:02;;;;;;;6.07;3.60;;;22.70;74.90;;;23.36;49.42;98018.75;5032681;27;119488;-71
2022/08/16 06:36:28;;;;;;;6.67;3.80;;;22.80;74.90;;;23.44;49.12;98024.34;5035353;27;118182;-71
2022/08/16 06:38:55;;;;;;;5.17;3.53;;;22.80;74.80;;;23.48;49.02;98016.63;5028950;27;124336;-71
2022/08/16 06:41:22;;;;;;;3.67;3.20;;;22.80;74.60;;;23.48;49.52;98020.28;5037275;27;123836;-71
2022/08/16 06:43:48;;;;;;;3.20;2.73;;;22.90;74.70;;;23.51;48.93;98018.66;5038953;27;119246;-71
2022/08/16 06:46:36;;;;;;;3.70;2.80;;;22.90;74.70;;;23.59;48.87;98015.31;5027903;27;119009;-72
2022/08/16 06:49:09;;;;;;;6.10;3.97;;;23.00;74.70;;;23.67;48.56;98013.22;5038432;27;124127;-72
2022/08/16 06:51:37;;;;;;;4.50;3.33;;;23.00;74.50;;;23.76;48.43;98015.56;5025084;27;124299;-72
2022/08/16 06:54:05;;;;;;;4.80;3.53;;;24.40;75.70;;;23.85;48.26;98015.06;5044566;27;118888;-72
2022/08/16 06:56:33;;;;;;;4.10;3.40;;;23.20;74.20;;;23.90;48.24;98018.22;5034570;27;119059;-73
2022/08/16 06:59:00;;;;;;;6.77;3.70;;;23.20;74.00;;;23.94;48.37;98023.84;5024079;27;123482;-72
2022/08/16 07:01:27;;;;;;;5.10;3.47;;;23.20;73.80;;;23.97;48.10;98012.50;5025715;27;123650;-72
2022/08/16 07:03:54;;;;;;;5.40;4.00;;;23.40;74.00;;;24.01;47.94;98018.09;5031988;27;120274;-71
2022/08/16 07:06:21;;;;;;;6.77;3.47;;;23.30;73.70;;;24.08;47.81;98014.41;5033576;27;119802;-71
2022/08/16 07:08:48;;;;;;;6.07;3.87;;;23.40;73.60;;;24.19;47.75;98035.59;5028356;27;124060;-72
2022/08/16 07:11:16;;;;;;;5.37;3.33;;;23.50;73.50;;;24.33;47.69;98022.53;5026173;27;123899;-72
2022/08/16 07:13:43;;;;;;;5.93;3.40;;;23.60;73.40;;;24.45;47.07;98031.28;5020461;27;118190;-71
2022/08/16 07:16:13;;;;;;;4.80;3.90;;;23.70;73.80;;;24.58;47.08;98031.50;5044219;27;119250;-72
2022/08/16 07:18:43;;;;;;;9.43;3.70;;;23.80;72.90;;;24.71;46.72;98028.88;5035728;27;124124;-72
2022/08/16 07:21:12;;;;;;;8.00;4.57;;;24.00;72.70;;;24.80;46.38;98019.88;5048674;27;122047;-71
2022/08/16 07:23:45;;;;;;;5.97;3.70;;;24.00;72.10;;;24.88;46.41;98016.50;5025088;27;119861;-72
2022/08/16 07:26:24;;;;;;;4.90;3.60;;;24.10;72.60;;;24.99;46.11;98018.38;5025500;27;117556;-72
2022/08/16 07:28:51;;;;;;;4.90;3.10;;;24.20;71.60;;;25.07;46.00;98017.81;5023914;27;124452;-72
2022/08/16 07:31:19;;;;;;;6.27;4.00;;;24.30;71.40;;;25.16;45.49;98011.63;5026159;27;124112;-72
2022/08/16 07:33:46;;;;;;;4.80;3.37;;;24.40;70.90;;;25.25;45.31;98013.91;5029596;27;118925;-71
2022/08/16 07:36:14;;;;;;;6.60;3.60;;;24.20;70.40;;;25.36;45.57;98008.84;5023259;27;118993;-72
2022/08/16 07:38:42;;;;;;;4.80;3.37;;;24.60;70.60;;;25.48;45.26;98011.06;5035897;27;124078;-72
2022/08/16 07:41:09;;;;;;;7.40;3.40;;;24.70;70.50;;;25.61;45.05;98004.78;5026937;27;123968;-72
2022/08/16 07:43:36;;;;;;;5.13;3.93;;;24.80;70.00;;;25.69;44.13;98000.59;5028209;27;119502;-72
2022/08/16 07:46:03;;;;;;;3.90;3.50;;;24.90;68.90;;;25.74;43.51;98003.72;5028011;27;119003;-71
2022/08/16 07:48:29;;;;;;;4.70;3.83;;;25.00;68.30;;;25.81;43.61;97999.13;5035149;27;124337;-72
2022/08/16 07:50:56;;;;;;;4.70;3.60;;;25.00;68.40;;;25.90;43.51;98010.69;5041541;27;123800;-72
2022/08/16 07:53:23;;;;;;;3.93;3.23;;;25.10;67.50;;;25.94;43.09;98011.44;5036421;27;120933;-71
2022/08/16 07:55:50;;;;;;;5.27;3.77;;;25.20;66.90;;;25.92;43.89;98016.72;5035493;27;119773;-71
2022/08/16 07:58:17;;;;;;;7.57;3.83;;;25.20;67.40;;;25.86;43.88;98010.78;5050660;27;124084;-70
2022/08/16 08:00:43;;;;;;;9.73;3.93;;;25.20;67.70;;;25.82;44.24;98018.53;5046610;27;123714;-71
2022/08/16 08:03:10;;;;;;;8.90;3.80;;;25.20;67.70;;;25.80;43.81;98020.97;5038716;27;118952;-72
2022/08/16 08:05:39;;;;;;;3.90;3.30;;;25.20;67.50;;;25.80;44.17;98018.16;5046594;27;118978;-70
2022/08/16 08:08:10;;;;;;;5.30;4.10;;;25.20;67.50;;;25.82;44.25;98026.19;5049200;27;124664;-71
2022/08/16 08:10:36;;;;;;;4.10;3.70;;;25.30;67.60;;;25.86;44.27;98016.44;5046127;27;124266;-70
2022/08/16 08:13:03;;;;;;;5.93;3.90;;;25.30;67.60;;;25.89;43.97;98026.09;5041895;27;119203;-71
2022/08/16 08:15:30;;;;;;;9.27;3.60;;;25.30;67.50;;;25.94;43.70;98029.22;5043476;27;118786;-71
2022/08/16 08:17:56;;;;;;;4.93;3.40;;;25.30;67.30;;;25.97;43.93;98038.88;5040612;27;123466;-70
2022/08/16 08:20:26;;;;;;;4.83;4.13;;;25.40;67.50;;;25.99;44.25;98040.03;5027109;27;123822;-71
2022/08/16 08:22:55;;;;;;;5.20;3.50;;;25.40;67.50;;;26.02;43.74;98037.56;5029025;27;118781;-71
2022/08/16 08:25:22;;;;;;;6.47;4.40;;;25.40;67.30;;;26.05;44.00;98048.03;5030235;27;119665;-72
2022/08/16 08:27:49;;;;;;;6.80;4.43;;;25.50;67.30;;;26.05;44.01;98048.03;5044155;27;123508;-70
2022/08/16 08:30:15;;;;;;;5.17;4.03;;;25.50;67.10;;;26.05;43.63;98042.34;5026924;27;124109;-71
2022/08/16 08:32:42;;;;;;;7.17;4.00;;;25.50;67.10;;;26.06;43.45;98043.94;5029450;27;118415;-70
2022/08/16 08:35:10;;;;;;;12.80;4.23;;;25.50;66.90;;;26.11;43.68;98057.59;5036151;27;118782;-72
2022/08/16 08:37:37;;;;;;;5.43;4.13;;;25.50;66.80;;;26.13;43.72;98038.16;5043946;27;124308;-71
2022/08/16 08:40:09;;;;;;;7.60;4.00;;;25.60;66.80;;;26.15;43.62;98047.00;5037619;27;124254;-71
2022/08/16 08:42:36;;;;;;;6.23;3.67;;;25.60;66.70;;;26.18;43.30;98052.59;5039961;27;119984;-70
2022/08/16 08:45:04;;;;;;;5.87;4.00;;;25.60;66.50;;;26.21;43.23;98059.41;5034774;27;119883;-72
2022/08/16 08:47:31;;;;;;;6.03;4.10;;;25.70;66.40;;;26.25;43.33;98056.50;5030046;27;124166;-70
2022/08/16 08:49:58;;;;;;;6.23;4.30;;;25.70;66.10;;;26.24;43.39;98050.03;5040717;27;123002;-70
2022/08/16 08:52:25;;;;;;;5.10;3.77;;;25.70;65.80;;;26.26;43.40;98049.63;5032171;27;119750;-71
2022/08/16 08:54:51;;;;;;;8.10;4.27;;;25.70;65.70;;;26.27;42.84;98060.50;5044057;27;119188;-71
2022/08/16 08:57:19;;;;;;;8.93;4.00;;;25.70;65.50;;;26.28;42.96;98059.28;5046458;27;124083;-70
2022/08/16 08:59:45;;;;;;;6.90;4.30;;;25.70;65.10;;;26.31;42.48;98063.28;5044874;27;123812;-72
2022/08/16 09:02:13;;;;;;;5.20;3.57;;;25.70;65.00;;;26.33;42.82;98058.78;5034976;27;119190;-72
2022/08/16 09:04:40;;;;;;;5.90;4.00;;;25.80;64.90;;;26.38;42.23;98065.94;5039446;27;118427;-71
2022/08/16 09:07:06;;;;;;;5.27;3.67;;;25.80;64.40;;;26.45;42.27;98060.91;5033578;27;123346;-71
2022/08/16 09:09:33;;;;;;;5.77;4.33;;;25.90;64.30;;;26.54;41.64;98065.22;5031209;27;123958;-72
2022/08/16 09:12:00;;;;;;;4.33;3.87;;;26.00;63.60;;;26.64;41.44;98058.53;5024128;27;118920;-73
2022/08/16 09:14:29;;;;;;;7.40;4.33;;;26.00;63.30;;;26.76;41.47;98054.19;5032100;27;119164;-73
2022/08/16 09:16:56;;;;;;;9.73;4.43;;;26.10;63.10;;;26.83;40.83;98060.50;5038671;27;123105;-73
2022/08/16 09:19:23;;;;;;;8.83;4.60;;;26.20;62.80;;;26.89;40.72;98060.78;5033098;27;123780;-72
2022/08/16 09:21:49;;;;;;;6.90;4.20;;;26.20;62.60;;;26.96;40.81;98059.84;5034955;27;119131;-74
2022/08/16 09:24:17;;;;;;;8.23;4.33;;;26.30;62.50;;;27.02;40.89;98056.00;5026572;27;118925;-74
2022/08/16 09:26:44;;;;;;;8.10;4.77;;;26.40;62.40;;;27.08;40.55;98053.44;5038804;27;123798;-71
2022/08/16 09:29:10;;;;;;;6.27;4.63;;;26.40;61.80;;;27.09;40.46;98057.91;5035766;27;123417;-73
2022/08/16 09:31:37;;;;;;;4.77;4.37;;;26.50;61.70;;;27.10;40.26;98059.47;5027815;27;119526;-73
2022/08/16 09:34:04;;;;;;;6.20;4.07;;;26.50;61.50;;;27.12;40.63;98050.53;5036467;27;120006;-71
2022/08/16 09:36:31;;;;;;;7.30;4.13;;;26.60;61.20;;;27.17;40.31;98059.34;5045110;27;124186;-71
2022/08/16 09:38:58;;;;;;;7.13;4.30;;;26.60;61.10;;;27.21;40.62;98053.56;5049277;27;123515;-72
2022/08/16 09:41:25;;;;;;;5.33;4.10;;;26.60;61.00;;;27.26;40.33;98062.34;5033606;27;119635;-71
2022/08/16 09:43:52;;;;;;;5.23;3.90;;;26.70;60.90;;;27.31;40.16;98061.81;5029634;27;118608;-73
2022/08/16 09:46:19;;;;;;;4.33;3.60;;;26.70;60.70;;;27.37;39.96;98055.63;5043877;27;124093;-71
2022/08/16 09:48:46;;;;;;;4.50;4.10;;;26.80;60.50;;;27.43;39.81;98057.50;5048209;27;123830;-73
2022/08/16 09:51:13;;;;;;;5.90;4.43;;;26.90;60.50;;;27.43;39.67;98059.50;5039660;27;119132;-72
2022/08/16 09:53:40;;;;;;;5.93;3.93;;;26.90;60.10;;;27.39;40.05;98053.94;5033868;27;119140;-72
2022/08/16 09:56:32;;;;;;;7.07;3.93;;;26.90;60.10;;;27.37;40.16;98050.72;5045773;27;123763;-72
2022/08/16 09:59:02;;;;;;;8.50;5.10;;;26.90;60.00;;;27.40;39.50;98054.72;5039432;27;124257;-71
2022/08/16 10:01:30;;;;;;;4.60;3.77;;;26.90;59.70;;;27.38;39.88;98045.84;5047263;27;119323;-71
2022/08/16 10:03:57;;;;;;;4.50;4.10;;;26.80;59.50;;;27.37;39.84;98044.28;5042684;27;119595;-71
2022/08/16 10:06:26;;;;;;;4.10;3.63;;;26.90;59.60;;;27.38;39.64;98040.19;5037558;27;124438;-72
2022/08/16 10:08:53;;;;;;;8.90;4.20;;;26.90;59.50;;;27.40;39.46;98049.06;5041796;27;123084;-73
2022/08/16 10:14:04;;;;;;;5.20;3.73;;;26.90;59.20;;;27.41;39.70;98051.44;5044599;27;120000;-72
2022/08/16 10:16:32;;;;;;;5.50;4.07;;;26.90;59.20;;;27.41;39.70;98059.19;5027627;27;124079;-71
2022/08/16 10:18:59;;;;;;;5.20;3.83;;;26.90;59.00;;;27.40;39.40;98046.22;5039448;27;123761;-72
2022/08/16 10:21:26;;;;;;;8.27;4.67;;;26.90;59.00;;;27.39;39.06;98042.59;5024849;27;120484;-73